createdAt,value
2023-04-15T00:00:58.486Z,100534.41
2023-04-15T00:03:25.690Z,100524.25
2023-04-15T00:05:52.766Z,100525.13
2023-04-15T00:08:20.466Z,100527.81
2023-04-15T00:10:47.154Z,100531.72
2023-04-15T00:13:13.789Z,100522.13
2023-04-15T00:15:40.659Z,100531.22
2023-04-15T00:18:08.349Z,100535.34
2023-04-15T00:20:35.349Z,100522.59
2023-04-15T00:23:04.135Z,100528.53
2023-04-15T00:25:30.832Z,100532.25
2023-04-15T00:27:57.339Z,100526.09
2023-04-15T00:30:24.047Z,100524.41
2023-04-15T00:32:50.897Z,100524.59
2023-04-15T00:35:17.499Z,100528.13
2023-04-15T00:37:46.085Z,100515.31
2023-04-15T00:40:13.912Z,100530.09
2023-04-15T00:42:41.086Z,100523.34
2023-04-15T00:45:08.826Z,100519.63
2023-04-15T00:47:37.773Z,100520.44
2023-04-15T00:50:04.997Z,100530.19
2023-04-15T00:52:32.074Z,100531.53
2023-04-15T00:54:59.572Z,100532.69
2023-04-15T00:57:27.111Z,100532.69
2023-04-15T00:59:53.886Z,100532.66
2023-04-15T01:02:20.938Z,100533.97
2023-04-15T01:04:47.667Z,100533.97
2023-04-15T01:07:14.592Z,100534.16
2023-04-15T01:09:42.073Z,100533.94
2023-04-15T01:12:12.111Z,100535.63
2023-04-15T01:14:38.748Z,100538.94
2023-04-15T01:17:05.377Z,100538.03
2023-04-15T01:19:32.192Z,100537.34
2023-04-15T01:21:58.931Z,100537.28
2023-04-15T01:24:28.076Z,100539.34
2023-04-15T01:26:54.695Z,100538.44
2023-04-15T01:29:21.431Z,100533.00
2023-04-15T01:31:52.197Z,100538.91
2023-04-15T01:34:19.487Z,100535.28
2023-04-15T01:36:46.345Z,100544.66
2023-04-15T01:39:13.453Z,100532.38
2023-04-15T01:41:41.101Z,100536.28
2023-04-15T01:44:08.121Z,100536.34
2023-04-15T01:46:35.368Z,100541.16
2023-04-15T01:49:02.445Z,100548.06
2023-04-15T01:51:29.070Z,100547.97
2023-04-15T01:53:57.036Z,100540.22
2023-04-15T01:56:26.694Z,100547.72
2023-04-15T01:58:53.431Z,100544.06
2023-04-15T02:01:20.198Z,100547.34
2023-04-15T02:03:48.031Z,100547.81
2023-04-15T02:06:14.887Z,100547.13
2023-04-15T02:08:41.439Z,100547.13
2023-04-15T02:11:08.456Z,100554.72
2023-04-15T02:13:35.209Z,100552.94
2023-04-15T02:16:01.934Z,100552.34
2023-04-15T02:18:28.649Z,100550.03
2023-04-15T02:20:56.779Z,100545.50
2023-04-15T02:23:23.269Z,100553.66
2023-04-15T02:25:53.329Z,100552.41
2023-04-15T02:28:20.787Z,100555.22
2023-04-15T02:30:54.366Z,100559.25
2023-04-15T02:33:21.830Z,100559.47
2023-04-15T02:35:48.375Z,100563.94
2023-04-15T02:38:16.830Z,100568.44
2023-04-15T02:40:43.330Z,100563.63
2023-04-15T02:43:09.845Z,100571.03
2023-04-15T02:45:36.360Z,100573.56
2023-04-15T02:48:06.310Z,100572.88
2023-04-15T02:50:33.311Z,100577.78
2023-04-15T02:53:01.714Z,100577.28
2023-04-15T02:55:29.076Z,100586.78
2023-04-15T02:57:55.789Z,100590.50
2023-04-15T03:00:25.373Z,100590.22
2023-04-15T03:02:56.591Z,100592.63
2023-04-15T03:05:26.228Z,100595.47
2023-04-15T03:07:53.178Z,100593.78
2023-04-15T03:10:20.216Z,100592.22
2023-04-15T03:12:46.850Z,100594.22
2023-04-15T03:15:13.475Z,100597.19
2023-04-15T03:17:40.111Z,100596.06
2023-04-15T03:20:07.527Z,100598.91
2023-04-15T03:22:34.228Z,100600.75
2023-04-15T03:25:00.666Z,100600.81
2023-04-15T03:27:27.103Z,100597.41
2023-04-15T03:29:53.636Z,100600.06
2023-04-15T03:32:20.363Z,100598.56
2023-04-15T03:34:46.778Z,100605.19
2023-04-15T03:37:13.223Z,100609.72
2023-04-15T03:39:39.744Z,100614.56
2023-04-15T03:42:06.182Z,100615.69
2023-04-15T03:44:32.916Z,100610.16
2023-04-15T03:46:59.457Z,100619.75
2023-04-15T03:49:26.171Z,100618.78
2023-04-15T03:51:52.655Z,100622.59
2023-04-15T03:54:19.107Z,100622.31
2023-04-15T03:56:45.792Z,100627.97
2023-04-15T03:59:12.251Z,100636.72
2023-04-15T04:01:38.722Z,100633.25
2023-04-15T04:04:05.226Z,100638.19
2023-04-15T04:06:31.723Z,100637.75
2023-04-15T04:08:58.168Z,100648.91
2023-04-15T04:11:24.687Z,100648.31
2023-04-15T04:13:51.168Z,100657.25
2023-04-15T04:16:17.794Z,100655.16
2023-04-15T04:18:44.303Z,100664.91
2023-04-15T04:21:11.058Z,100659.41
2023-04-15T04:23:37.578Z,100662.50
2023-04-15T04:26:04.051Z,100660.38
2023-04-15T04:28:30.583Z,100669.72
2023-04-15T04:30:57.147Z,100673.81
2023-04-15T04:33:23.712Z,100680.16
2023-04-15T04:35:50.108Z,100691.34
2023-04-15T04:38:16.619Z,100687.78
2023-04-15T04:40:43.260Z,100690.34
2023-04-15T04:43:10.097Z,100695.28
2023-04-15T04:45:36.721Z,100695.56
2023-04-15T04:48:07.032Z,100698.66
2023-04-15T04:50:34.262Z,100701.19
2023-04-15T04:53:01.624Z,100702.06
2023-04-15T04:55:28.428Z,100704.31
2023-04-15T04:57:54.939Z,100711.94
2023-04-15T05:00:21.689Z,100715.22
2023-04-15T05:02:48.510Z,100720.69
2023-04-15T05:05:15.194Z,100721.44
2023-04-15T05:07:42.120Z,100724.78
2023-04-15T05:10:09.343Z,100728.31
2023-04-15T05:12:37.425Z,100727.03
2023-04-15T05:15:05.237Z,100728.75
2023-04-15T05:17:33.397Z,100743.03
2023-04-15T05:19:59.973Z,100744.28
2023-04-15T05:22:26.620Z,100753.19
2023-04-15T05:24:53.183Z,100748.81
2023-04-15T05:27:19.733Z,100762.25
2023-04-15T05:29:46.420Z,100759.00
2023-04-15T05:32:13.067Z,100762.94
2023-04-15T05:34:39.614Z,100767.88
2023-04-15T05:37:06.087Z,100772.53
2023-04-15T05:39:32.897Z,100775.81
2023-04-15T05:42:00.185Z,100785.84
2023-04-15T05:44:26.919Z,100791.09
2023-04-15T05:46:53.537Z,100788.69
2023-04-15T05:49:20.264Z,100781.91
2023-04-15T05:51:48.216Z,100790.38
2023-04-15T05:54:14.733Z,100789.66
2023-04-15T05:56:41.146Z,100787.84
2023-04-15T05:59:07.547Z,100799.84
2023-04-15T06:01:34.935Z,100800.72
2023-04-15T06:04:01.917Z,100807.63
2023-04-15T06:06:28.576Z,100809.59
2023-04-15T06:08:56.019Z,100817.25
2023-04-15T06:11:22.488Z,100812.72
2023-04-15T06:13:49.131Z,100818.78
2023-04-15T06:16:15.893Z,100826.44
2023-04-15T06:18:42.588Z,100828.13
2023-04-15T06:21:09.132Z,100829.28
2023-04-15T06:23:36.497Z,100838.88
2023-04-15T06:26:03.754Z,100835.31
2023-04-15T06:28:30.721Z,100837.13
2023-04-15T06:30:57.373Z,100836.56
2023-04-15T06:33:23.940Z,100840.63
2023-04-15T06:35:51.083Z,100856.31
2023-04-15T06:38:17.621Z,100860.97
2023-04-15T06:40:44.143Z,100857.16
2023-04-15T06:43:10.615Z,100867.44
2023-04-15T06:45:37.065Z,100871.50
2023-04-15T06:48:03.708Z,100879.97
2023-04-15T06:50:30.272Z,100876.69
2023-04-15T06:52:57.413Z,100880.06
2023-04-15T06:55:23.897Z,100885.91
2023-04-15T06:57:50.391Z,100888.72
2023-04-15T07:00:17.620Z,100885.78
2023-04-15T07:02:44.841Z,100902.84
2023-04-15T07:05:11.410Z,100900.16
2023-04-15T07:07:38.360Z,100909.19
2023-04-15T07:10:05.765Z,100907.34
2023-04-15T07:12:32.391Z,100907.09
2023-04-15T07:14:59.395Z,100909.31
2023-04-15T07:17:26.250Z,100903.53
2023-04-15T07:19:52.806Z,100905.78
2023-04-15T07:22:19.525Z,100912.44
2023-04-15T07:24:46.743Z,100911.06
2023-04-15T07:27:13.550Z,100914.00
2023-04-15T07:29:40.555Z,100917.31
2023-04-15T07:32:07.183Z,100920.09
2023-04-15T07:34:33.876Z,100922.09
2023-04-15T07:37:00.530Z,100923.81
2023-04-15T07:39:27.400Z,100924.66
2023-04-15T07:41:53.960Z,100926.16
2023-04-15T07:44:20.586Z,100921.25
2023-04-15T07:46:48.036Z,100927.03
2023-04-15T07:49:14.673Z,100929.22
2023-04-15T07:51:41.430Z,100932.09
2023-04-15T07:54:07.976Z,100939.59
2023-04-15T07:56:34.483Z,100948.75
2023-04-15T07:59:02.859Z,100943.13
2023-04-15T08:01:29.555Z,100940.47
2023-04-15T08:03:56.390Z,100945.16
2023-04-15T08:06:23.410Z,100946.72
2023-04-15T08:08:50.083Z,100953.00
2023-04-15T08:11:17.089Z,100952.38
2023-04-15T08:13:43.730Z,100955.00
2023-04-15T08:16:24.663Z,100951.03
2023-04-15T08:18:53.206Z,100956.03
2023-04-15T08:21:20.136Z,100959.53
2023-04-15T08:23:48.551Z,100962.03
2023-04-15T08:26:15.268Z,100961.31
2023-04-15T08:28:42.994Z,100963.69
2023-04-15T08:31:10.492Z,100970.00
2023-04-15T08:33:37.133Z,100970.78
2023-04-15T08:36:04.620Z,100978.09
2023-04-15T08:38:31.316Z,100968.06
2023-04-15T08:41:00.409Z,100967.84
2023-04-15T08:43:34.684Z,100986.31
2023-04-15T08:46:02.396Z,100989.13
2023-04-15T08:48:32.603Z,100995.63
2023-04-15T08:50:59.930Z,100990.41
2023-04-15T08:53:26.613Z,101000.06
2023-04-15T08:55:57.437Z,100999.22
2023-04-15T08:58:25.305Z,101003.72
2023-04-15T09:00:52.023Z,100999.47
2023-04-15T09:03:19.259Z,101005.38
2023-04-15T09:05:47.050Z,101013.38
2023-04-15T09:08:13.747Z,101012.13
2023-04-15T09:10:40.344Z,101016.03
2023-04-15T09:13:06.949Z,101015.50
2023-04-15T09:15:33.775Z,101021.63
2023-04-15T09:18:00.438Z,101022.88
2023-04-15T09:20:27.390Z,101033.06
2023-04-15T09:22:54.228Z,101025.69
2023-04-15T09:25:24.583Z,101033.16
2023-04-15T09:28:02.311Z,101038.25
2023-04-15T09:30:29.648Z,101041.97
2023-04-15T09:33:01.000Z,101051.63
2023-04-15T09:35:28.613Z,101041.34
2023-04-15T09:38:07.537Z,101048.19
2023-04-15T09:40:41.276Z,101048.66
2023-04-15T09:43:09.647Z,101047.44
2023-04-15T09:45:37.346Z,101055.13
2023-04-15T09:48:23.487Z,101040.06
2023-04-15T09:50:50.549Z,101042.44
2023-04-15T09:53:22.017Z,101044.69
2023-04-15T09:55:54.728Z,101044.56
2023-04-15T09:58:26.662Z,101060.97
2023-04-15T10:00:55.270Z,101061.25
2023-04-15T10:03:26.777Z,101072.09
2023-04-15T10:05:56.791Z,101063.44
2023-04-15T10:08:27.958Z,101059.81
2023-04-15T10:10:55.003Z,101063.47
2023-04-15T10:13:23.961Z,101068.53
2023-04-15T10:15:59.828Z,101078.63
2023-04-15T10:18:28.440Z,101068.50
2023-04-15T10:20:56.011Z,101082.63
2023-04-15T10:23:24.598Z,101068.84
2023-04-15T10:25:53.426Z,101071.63
2023-04-15T10:28:20.921Z,101068.72
2023-04-15T10:30:49.830Z,101072.66
2023-04-15T10:33:20.566Z,101076.94
2023-04-15T10:35:49.071Z,101070.28
2023-04-15T10:38:44.549Z,101080.56
2023-04-15T10:41:28.200Z,101086.50
2023-04-15T10:43:58.078Z,101091.03
2023-04-15T10:46:41.238Z,101087.13
2023-04-15T10:49:09.775Z,101099.25
2023-04-15T10:51:41.592Z,101101.78
2023-04-15T10:54:39.632Z,101103.66
2023-04-15T10:57:06.732Z,101104.50
2023-04-15T10:59:36.775Z,101105.28
2023-04-15T11:02:06.099Z,101112.97
2023-04-15T11:04:56.375Z,101113.28
2023-04-15T11:07:39.950Z,101111.78
2023-04-15T11:10:18.612Z,101109.59
2023-04-15T11:12:46.104Z,101110.59
2023-04-15T11:15:30.624Z,101112.94
2023-04-15T11:18:18.121Z,101111.16
2023-04-15T11:20:50.779Z,101118.63
2023-04-15T11:23:31.745Z,101116.72
2023-04-15T11:25:59.993Z,101110.78
2023-04-15T11:28:28.245Z,101125.75
2023-04-15T11:30:55.820Z,101119.66
2023-04-15T11:33:23.907Z,101113.38
2023-04-15T11:35:52.745Z,101112.59
2023-04-15T11:38:19.416Z,101122.84
2023-04-15T11:40:47.253Z,101131.19
2023-04-15T11:43:20.929Z,101138.00
2023-04-15T11:45:58.800Z,101131.03
2023-04-15T11:48:30.020Z,101131.44
2023-04-15T11:51:01.793Z,101131.44
2023-04-15T11:53:44.386Z,101137.38
2023-04-15T11:56:22.212Z,101130.09
2023-04-15T11:58:52.088Z,101126.56
2023-04-15T12:01:18.886Z,101133.97
2023-04-15T12:03:47.508Z,101139.25
2023-04-15T12:06:22.552Z,101136.94
2023-04-15T12:09:07.317Z,101134.66
2023-04-15T12:11:47.872Z,101133.97
2023-04-15T12:14:31.138Z,101139.63
2023-04-15T12:17:03.100Z,101154.44
2023-04-15T12:19:38.220Z,101153.56
2023-04-15T12:22:06.848Z,101153.78
2023-04-15T12:24:35.056Z,101162.28
2023-04-15T12:27:04.086Z,101168.41
2023-04-15T12:29:31.297Z,101169.19
2023-04-15T12:32:04.094Z,101179.31
2023-04-15T12:34:32.704Z,101178.63
2023-04-15T12:37:01.695Z,101181.88
2023-04-15T12:39:31.442Z,101173.59
2023-04-15T12:42:00.443Z,101180.53
2023-04-15T12:44:28.574Z,101192.84
2023-04-15T12:46:55.869Z,101191.25
2023-04-15T12:49:24.301Z,101197.38
2023-04-15T12:51:53.275Z,101194.16
2023-04-15T12:54:20.184Z,101199.91
2023-04-15T12:56:48.289Z,101214.31
2023-04-15T12:59:16.353Z,101214.44
2023-04-15T13:01:42.865Z,101214.59
2023-04-15T13:04:09.805Z,101225.78
2023-04-15T13:06:36.961Z,101222.41
2023-04-15T13:09:05.673Z,101224.38
2023-04-15T13:11:33.876Z,101222.31
2023-04-15T13:14:05.243Z,101227.66
2023-04-15T13:16:33.032Z,101225.75
2023-04-15T13:19:00.740Z,101230.66
2023-04-15T13:21:28.083Z,101234.16
2023-04-15T13:23:55.258Z,101241.81
2023-04-15T13:26:21.933Z,101236.69
2023-04-15T13:28:48.488Z,101246.56
2023-04-15T13:31:15.108Z,101248.81
2023-04-15T13:33:41.805Z,101248.69
2023-04-15T13:36:08.807Z,101244.09
2023-04-15T13:38:35.405Z,101251.88
2023-04-15T13:41:01.990Z,101260.69
2023-04-15T13:43:28.624Z,101257.13
2023-04-15T13:45:55.539Z,101262.22
2023-04-15T13:48:22.055Z,101262.38
2023-04-15T13:50:48.688Z,101261.44
2023-04-15T13:53:15.290Z,101273.38
2023-04-15T13:55:42.817Z,101261.25
2023-04-15T13:58:09.912Z,101273.66
2023-04-15T14:00:36.685Z,101277.78
2023-04-15T14:03:03.602Z,101283.75
2023-04-15T14:05:30.472Z,101292.88
2023-04-15T14:07:57.151Z,101295.94
2023-04-15T14:10:23.769Z,101303.09
2023-04-15T14:12:50.896Z,101302.81
2023-04-15T14:15:17.504Z,101309.41
2023-04-15T14:17:44.270Z,101312.41
2023-04-15T14:20:11.381Z,101323.19
2023-04-15T14:22:37.905Z,101309.94
2023-04-15T14:25:05.058Z,101318.16
2023-04-15T14:27:31.560Z,101314.59
2023-04-15T14:29:58.866Z,101325.13
2023-04-15T14:32:26.547Z,101332.00
2023-04-15T14:34:53.033Z,101338.91
2023-04-15T14:37:19.732Z,101331.00
2023-04-15T14:39:46.171Z,101339.94
2023-04-15T14:42:12.837Z,101346.69
2023-04-15T14:44:39.421Z,101355.22
2023-04-15T14:47:06.076Z,101358.13
2023-04-15T14:49:32.642Z,101351.53
2023-04-15T14:51:59.291Z,101361.25
2023-04-15T14:54:25.784Z,101354.84
2023-04-15T14:56:52.222Z,101378.00
2023-04-15T14:59:18.752Z,101377.34
2023-04-15T15:01:45.536Z,101376.47
2023-04-15T15:04:13.018Z,101384.28
2023-04-15T15:06:40.185Z,101385.16
2023-04-15T15:09:07.000Z,101388.38
2023-04-15T15:11:33.618Z,101388.69
2023-04-15T15:14:00.164Z,101393.66
2023-04-15T15:16:28.248Z,101394.84
2023-04-15T15:18:55.576Z,101397.03
2023-04-15T15:21:22.048Z,101393.31
2023-04-15T15:23:48.565Z,101395.50
2023-04-15T15:26:15.915Z,101401.03
2023-04-15T15:28:42.464Z,101411.53
2023-04-15T15:31:09.096Z,101408.34
2023-04-15T15:33:35.696Z,101417.66
2023-04-15T15:36:03.765Z,101413.28
2023-04-15T15:38:30.354Z,101427.09
2023-04-15T15:40:56.798Z,101414.47
2023-04-15T15:43:23.231Z,101419.44
2023-04-15T15:45:51.815Z,101430.44
2023-04-15T15:48:18.622Z,101426.53
2023-04-15T15:50:45.736Z,101419.63
2023-04-15T15:53:12.478Z,101427.09
2023-04-15T15:55:38.927Z,101436.41
2023-04-15T15:58:05.345Z,101439.13
2023-04-15T16:00:31.872Z,101443.50
2023-04-15T16:05:27.808Z,101448.47
2023-04-15T16:07:54.268Z,101439.72
2023-04-15T16:10:20.839Z,101450.88
2023-04-15T16:12:47.288Z,101454.63
2023-04-15T16:15:14.165Z,101454.31
2023-04-15T16:17:40.673Z,101467.84
2023-04-15T16:20:07.989Z,101458.38
2023-04-15T16:22:35.045Z,101464.47
2023-04-15T16:25:02.468Z,101478.38
2023-04-15T16:27:28.932Z,101482.44
2023-04-15T16:29:55.501Z,101481.69
2023-04-15T16:32:22.140Z,101496.53
2023-04-15T16:34:48.697Z,101502.50
2023-04-15T16:37:15.163Z,101501.81
2023-04-15T16:39:41.617Z,101493.41
2023-04-15T16:42:08.123Z,101508.22
2023-04-15T16:44:34.593Z,101508.09
2023-04-15T16:47:03.035Z,101503.97
2023-04-15T16:49:29.912Z,101516.34
2023-04-15T16:51:57.040Z,101505.78
2023-04-15T16:54:23.616Z,101511.69
2023-04-15T16:56:50.153Z,101509.84
2023-04-15T16:59:16.830Z,101510.44
2023-04-15T17:01:43.455Z,101517.56
2023-04-15T17:04:10.023Z,101517.09
2023-04-15T17:06:36.525Z,101525.94
2023-04-15T17:09:03.609Z,101525.22
2023-04-15T17:11:31.299Z,101527.63
2023-04-15T17:13:57.852Z,101531.47
2023-04-15T17:16:25.165Z,101533.03
2023-04-15T17:18:51.761Z,101530.00
2023-04-15T17:21:18.193Z,101536.28
2023-04-15T17:23:44.780Z,101545.66
2023-04-15T17:26:11.392Z,101549.84
2023-04-15T17:28:38.042Z,101550.22
2023-04-15T17:31:05.200Z,101550.09
2023-04-15T17:34:01.136Z,101544.63
2023-04-15T17:36:18.426Z,101558.34
2023-04-15T17:38:45.520Z,101550.53
2023-04-15T17:41:12.054Z,101558.75
2023-04-15T17:43:38.561Z,101566.84
2023-04-15T17:46:07.679Z,101562.78
2023-04-15T17:48:34.657Z,101562.09
2023-04-15T17:51:01.266Z,101564.81
2023-04-15T17:53:27.733Z,101570.94
2023-04-15T17:55:54.360Z,101580.28
2023-04-15T17:58:20.884Z,101576.44
2023-04-15T18:00:47.702Z,101580.44
2023-04-15T18:03:14.848Z,101584.41
2023-04-15T18:05:42.637Z,101601.34
2023-04-15T18:08:09.621Z,101596.25
2023-04-15T18:10:36.766Z,101607.22
2023-04-15T18:13:03.441Z,101606.38
2023-04-15T18:15:31.189Z,101603.53
2023-04-15T18:18:00.995Z,101615.75
2023-04-15T18:20:27.859Z,101611.47
2023-04-15T18:22:54.416Z,101617.16
2023-04-15T18:25:20.912Z,101609.63
2023-04-15T18:27:47.448Z,101613.91
2023-04-15T18:30:13.974Z,101617.59
2023-04-15T18:32:41.205Z,101622.56
2023-04-15T18:35:08.183Z,101628.94
2023-04-15T18:37:34.775Z,101636.50
2023-04-15T18:40:01.369Z,101631.66
2023-04-15T18:42:27.850Z,101640.47
2023-04-15T18:44:54.608Z,101645.44
2023-04-15T18:47:21.324Z,101645.41
2023-04-15T18:49:47.904Z,101651.81
2023-04-15T18:52:14.399Z,101653.25
2023-04-15T18:54:40.992Z,101659.75
2023-04-15T18:57:07.612Z,101661.09
2023-04-15T18:59:34.261Z,101660.19
2023-04-15T19:02:02.023Z,101657.06
2023-04-15T19:04:31.453Z,101673.69
2023-04-15T19:06:59.152Z,101683.81
2023-04-15T19:09:26.011Z,101685.97
2023-04-15T19:11:52.561Z,101679.13
2023-04-15T19:14:19.038Z,101681.47
2023-04-15T19:16:45.540Z,101680.44
2023-04-15T19:19:14.514Z,101691.91
2023-04-15T19:21:41.483Z,101693.22
2023-04-15T19:24:07.948Z,101699.47
2023-04-15T19:26:34.684Z,101700.19
2023-04-15T19:29:01.242Z,101694.44
2023-04-15T19:31:27.688Z,101703.03
2023-04-15T19:33:54.206Z,101703.09
2023-04-15T19:36:20.723Z,101704.22
2023-04-15T19:38:47.152Z,101704.69
2023-04-15T19:41:13.668Z,101706.28
2023-04-15T19:43:40.124Z,101710.94
2023-04-15T19:46:07.093Z,101715.28
2023-04-15T19:48:33.571Z,101713.22
2023-04-15T19:51:00.563Z,101710.38
2023-04-15T19:53:27.058Z,101716.03
2023-04-15T19:55:53.485Z,101714.75
2023-04-15T19:58:19.958Z,101708.16
2023-04-15T20:00:46.502Z,101727.00
2023-04-15T20:03:13.179Z,101722.00
2023-04-15T20:05:39.706Z,101728.59
2023-04-15T20:08:06.298Z,101726.03
2023-04-15T20:10:32.753Z,101726.34
2023-04-15T20:12:59.464Z,101722.09
2023-04-15T20:15:26.164Z,101723.41
2023-04-15T20:17:53.929Z,101722.34
2023-04-15T20:20:20.776Z,101721.22
2023-04-15T20:22:47.474Z,101724.53
2023-04-15T20:25:14.089Z,101728.09
2023-04-15T20:27:40.615Z,101725.66
2023-04-15T20:30:07.698Z,101735.34
2023-04-15T20:32:35.896Z,101740.22
2023-04-15T20:35:04.247Z,101732.38
2023-04-15T20:37:33.154Z,101735.25
2023-04-15T20:40:01.031Z,101726.03
2023-04-15T20:42:27.634Z,101731.50
2023-04-15T20:44:54.116Z,101737.03
2023-04-15T20:47:20.760Z,101731.47
2023-04-15T20:49:47.467Z,101727.66
2023-04-15T20:52:13.971Z,101732.91
2023-04-15T20:54:40.374Z,101745.63
2023-04-15T20:57:07.375Z,101733.56
2023-04-15T20:59:34.887Z,101732.81
2023-04-15T21:02:01.989Z,101740.91
2023-04-15T21:04:28.548Z,101734.16
2023-04-15T21:06:55.260Z,101743.88
2023-04-15T21:09:21.733Z,101746.19
2023-04-15T21:14:18.799Z,101745.66
2023-04-15T21:16:45.583Z,101752.16
2023-04-15T21:19:12.166Z,101758.72
2023-04-15T21:21:38.721Z,101755.88
2023-04-15T21:24:07.685Z,101757.31
2023-04-15T21:26:35.654Z,101755.34
2023-04-15T21:29:02.305Z,101763.25
2023-04-15T21:31:28.778Z,101758.28
2023-04-15T21:33:55.291Z,101763.56
2023-04-15T21:36:21.771Z,101753.00
2023-04-15T21:38:48.256Z,101758.03
2023-04-15T21:41:14.798Z,101762.03
2023-04-15T21:43:41.328Z,101765.81
2023-04-15T21:46:23.723Z,101767.88
2023-04-15T21:48:52.487Z,101776.34
2023-04-15T21:51:19.075Z,101785.38
2023-04-15T21:53:45.706Z,101774.03
2023-04-15T21:56:12.369Z,101785.69
2023-04-15T21:58:38.898Z,101785.53
2023-04-15T22:01:05.698Z,101785.53
2023-04-15T22:03:34.360Z,101786.47
2023-04-15T22:06:03.042Z,101782.56
2023-04-15T22:08:32.112Z,101782.69
2023-04-15T22:11:00.270Z,101779.50
2023-04-15T22:13:26.720Z,101786.41
2023-04-15T22:15:53.146Z,101789.09
2023-04-15T22:18:19.606Z,101793.31
2023-04-15T22:20:46.040Z,101795.56
2023-04-15T22:23:12.462Z,101791.78
2023-04-15T22:25:38.935Z,101795.09
2023-04-15T22:28:09.479Z,101801.88
2023-04-15T22:30:39.803Z,101795.03
2023-04-15T22:33:06.933Z,101794.03
2023-04-15T22:35:34.419Z,101802.19
2023-04-15T22:38:01.341Z,101807.13
2023-04-15T22:40:28.946Z,101800.53
2023-04-15T22:42:55.766Z,101810.28
2023-04-15T22:45:22.245Z,101808.03
2023-04-15T22:47:48.737Z,101818.00
2023-04-15T22:50:15.256Z,101809.53
2023-04-15T22:52:43.275Z,101816.34
2023-04-15T22:55:09.916Z,101813.50
2023-04-15T22:57:36.397Z,101817.75
2023-04-15T23:00:03.723Z,101817.75
2023-04-15T23:02:30.380Z,101819.13
2023-04-15T23:04:57.075Z,101824.31
2023-04-15T23:07:23.681Z,101831.78
2023-04-15T23:09:50.506Z,101830.22
2023-04-15T23:12:16.934Z,101829.25
2023-04-15T23:14:43.431Z,101828.53
2023-04-15T23:17:09.887Z,101841.16
2023-04-15T23:19:36.413Z,101835.34
2023-04-15T23:22:03.319Z,101842.91
2023-04-15T23:24:29.940Z,101837.34
2023-04-15T23:26:57.228Z,101842.00
2023-04-15T23:29:23.769Z,101839.63
2023-04-15T23:31:50.381Z,101837.19
2023-04-15T23:34:16.872Z,101837.78
2023-04-15T23:36:43.359Z,101841.34
2023-04-15T23:39:10.381Z,101845.88
2023-04-15T23:41:37.002Z,101850.16
2023-04-15T23:44:03.633Z,101853.63
2023-04-15T23:46:30.133Z,101849.97
2023-04-15T23:48:56.745Z,101849.97
2023-04-15T23:51:23.217Z,101847.97
2023-04-15T23:53:50.123Z,101853.38
2023-04-15T23:56:16.656Z,101851.47
2023-04-15T23:58:43.200Z,101859.56
